Time,TemperatureF,DewpointF,PressureIn,WindDirection,WindDirectionDegrees,WindSpeedMPH,WindSpeedGustMPH,Humidity,HourlyPrecipIn,Conditions,Clouds,dailyrainin,SoftwareType,DateUTC
2013-03-27 00:00:00,36.0,27.0,30.03,North,-999,-999.0,-999.0,69,-99.99,,,-99.99,,2013-03-27 00:00:00,
2013-03-27 00:41:00,36.0,27.0,30.03,North,-999,-999.0,-999.0,69,-99.99,,,-99.99,,2013-03-27 00:41:00,
2013-03-27 00:51:00,36.0,27.0,30.03,North,-999,-999.0,-999.0,69,-99.99,,,-99.99,,2013-03-27 00:51:00,
2013-03-27 01:00:00,36.0,22.0,30.02,North,-999,-999.0,-999.0,55,-99.99,,,-99.99,,2013-03-27 01:00:00,
2013-03-27 01:41:00,36.0,22.0,30.02,North,-999,-999.0,-999.0,55,-99.99,,,-99.99,,2013-03-27 01:41:00,
2013-03-27 01:52:00,36.0,22.0,30.02,North,-999,-999.0,-999.0,55,-99.99,,,-99.99,,2013-03-27 01:52:00,
2013-03-27 02:00:00,34.0,27.0,30.02,North,-999,-999.0,-999.0,75,-99.99,,,-99.99,,2013-03-27 02:00:00,
2013-03-27 02:42:00,34.0,27.0,30.02,North,-999,-999.0,-999.0,75,-99.99,,,-99.99,,2013-03-27 02:42:00,
2013-03-27 02:52:00,34.0,27.0,30.02,North,-999,-999.0,-999.0,75,-99.99,,,-99.99,,2013-03-27 02:52:00,
2013-03-27 03:00:00,35.0,31.0,29.98,North,-999,-999.0,-999.0,84,-99.99,,,-99.99,,2013-03-27 03:00:00,
2013-03-27 03:32:00,35.0,31.0,29.98,North,-999,-999.0,-999.0,84,-99.99,,,-99.99,,2013-03-27 03:32:00,
2013-03-27 03:42:00,35.0,31.0,29.98,North,-999,-999.0,-999.0,84,-99.99,,,-99.99,,2013-03-27 03:42:00,
2013-03-27 03:52:00,35.0,31.0,29.98,North,-999,-999.0,-999.0,84,-99.99,,,-99.99,,2013-03-27 03:52:00,
2013-03-27 04:00:00,36.0,29.0,29.96,North,-999,-999.0,-999.0,77,-99.99,,,-99.99,,2013-03-27 04:00:00,
2013-03-27 04:42:00,36.0,29.0,29.96,North,-999,-999.0,-999.0,77,-99.99,,,-99.99,,2013-03-27 04:42:00,
2013-03-27 04:52:00,36.0,29.0,29.96,North,-999,-999.0,-999.0,77,-99.99,,,-99.99,,2013-03-27 04:52:00,
2013-03-27 05:00:00,35.0,30.0,29.96,North,-999,-999.0,-999.0,80,-99.99,,,-99.99,,2013-03-27 05:00:00,
2013-03-27 05:42:00,35.0,30.0,29.96,North,-999,-999.0,-999.0,80,-99.99,,,-99.99,,2013-03-27 05:42:00,
2013-03-27 05:52:00,35.0,30.0,29.96,North,-999,-999.0,-999.0,80,-99.99,,,-99.99,,2013-03-27 05:52:00,
2013-03-27 06:00:00,34.0,28.0,30.01,North,-999,-999.0,-999.0,78,-99.99,,,-99.99,,2013-03-27 06:00:00,
2013-03-27 06:31:00,34.0,28.0,30.01,North,-999,-999.0,-999.0,78,-99.99,,,-99.99,,2013-03-27 06:31:00,
2013-03-27 06:41:00,34.0,28.0,30.01,North,-999,-999.0,-999.0,78,-99.99,,,-99.99,,2013-03-27 06:41:00,
2013-03-27 06:51:00,34.0,28.0,30.01,North,-999,-999.0,-999.0,78,-99.99,,,-99.99,,2013-03-27 06:51:00,
2013-03-27 07:00:00,35.0,28.0,30.00,North,-999,-999.0,-999.0,75,-99.99,,,-99.99,,2013-03-27 07:00:00,
2013-03-27 07:41:00,35.0,28.0,30.00,North,-999,-999.0,-999.0,75,-99.99,,,-99.99,,2013-03-27 07:41:00,
2013-03-27 07:52:00,35.0,28.0,30.00,North,-999,-999.0,-999.0,75,-99.99,,,-99.99,,2013-03-27 07:52:00,
2013-03-27 08:00:00,35.0,28.0,29.99,North,-999,-999.0,-999.0,74,-99.99,,,-99.99,,2013-03-27 08:00:00,
2013-03-27 08:31:00,35.0,28.0,29.99,North,-999,-999.0,-999.0,74,-99.99,,,-99.99,,2013-03-27 08:31:00,
2013-03-27 08:42:00,35.0,28.0,29.99,North,-999,-999.0,-999.0,74,-99.99,,,-99.99,,2013-03-27 08:42:00,
2013-03-27 08:51:00,35.0,28.0,29.99,North,-999,-999.0,-999.0,74,-99.99,,,-99.99,,2013-03-27 08:51:00,
2013-03-27 09:00:00,36.0,28.0,29.99,North,-999,-999.0,-999.0,73,-99.99,,,-99.99,,2013-03-27 09:00:00,
2013-03-27 09:41:00,36.0,28.0,29.99,North,-999,-999.0,-999.0,73,-99.99,,,-99.99,,2013-03-27 09:41:00,
2013-03-27 09:52:00,36.0,28.0,29.99,North,-999,-999.0,-999.0,73,-99.99,,,-99.99,,2013-03-27 09:52:00,
2013-03-27 10:00:00,38.0,28.0,30.00,North,-999,-999.0,-999.0,68,-99.99,,,-99.99,,2013-03-27 10:00:00,
2013-03-27 10:31:00,38.0,28.0,30.00,North,-999,-999.0,-999.0,68,-99.99,,,-99.99,,2013-03-27 10:31:00,
2013-03-27 10:41:00,38.0,28.0,30.00,North,-999,-999.0,-999.0,68,-99.99,,,-99.99,,2013-03-27 10:41:00,
2013-03-27 10:52:00,38.0,28.0,30.00,North,-999,-999.0,-999.0,68,-99.99,,,-99.99,,2013-03-27 10:52:00,
2013-03-27 11:00:00,36.0,28.0,30.01,North,-999,-999.0,-999.0,71,-99.99,,,-99.99,,2013-03-27 11:00:00,
2013-03-27 11:42:00,36.0,28.0,30.01,North,-999,-999.0,-999.0,71,-99.99,,,-99.99,,2013-03-27 11:42:00,
2013-03-27 11:51:00,36.0,28.0,30.01,North,-999,-999.0,-999.0,71,-99.99,,,-99.99,,2013-03-27 11:51:00,
2013-03-27 12:00:00,38.0,29.0,30.01,North,-999,-999.0,-999.0,69,-99.99,,,-99.99,,2013-03-27 12:00:00,
2013-03-27 12:31:00,38.0,29.0,30.01,North,-999,-999.0,-999.0,69,-99.99,,,-99.99,,2013-03-27 12:31:00,
2013-03-27 12:42:00,38.0,29.0,30.01,North,-999,-999.0,-999.0,69,-99.99,,,-99.99,,2013-03-27 12:42:00,
2013-03-27 12:51:00,38.0,29.0,30.01,North,-999,-999.0,-999.0,69,-99.99,,,-99.99,,2013-03-27 12:51:00,
2013-03-27 13:00:00,35.0,31.0,30.01,North,-999,-999.0,-999.0,84,-99.99,,,-99.99,,2013-03-27 13:00:00,
2013-03-27 13:41:00,35.0,31.0,30.01,North,-999,-999.0,-999.0,84,-99.99,,,-99.99,,2013-03-27 13:41:00,
2013-03-27 14:00:00,36.0,31.0,30.01,North,-999,-999.0,-999.0,81,-99.99,,,-99.99,,2013-03-27 14:00:00,
2013-03-27 14:31:00,36.0,31.0,30.01,North,-999,-999.0,-999.0,81,-99.99,,,-99.99,,2013-03-27 14:31:00,
2013-03-27 14:41:00,36.0,31.0,30.01,North,-999,-999.0,-999.0,81,-99.99,,,-99.99,,2013-03-27 14:41:00,
2013-03-27 14:51:00,36.0,31.0,30.01,North,-999,-999.0,-999.0,81,-99.99,,,-99.99,,2013-03-27 14:51:00,
2013-03-27 15:00:00,38.0,31.0,30.01,North,-999,-999.0,-999.0,75,-99.99,,,-99.99,,2013-03-27 15:00:00,
2013-03-27 15:42:00,38.0,31.0,30.01,North,-999,-999.0,-999.0,75,-99.99,,,-99.99,,2013-03-27 15:42:00,
2013-03-27 15:52:00,38.0,31.0,30.01,North,-999,-999.0,-999.0,75,-99.99,,,-99.99,,2013-03-27 15:52:00,
2013-03-27 16:00:00,35.0,31.0,30.01,North,-999,-999.0,-999.0,82,-99.99,,,-99.99,,2013-03-27 16:00:00,
2013-03-27 16:41:00,35.0,31.0,30.01,North,-999,-999.0,-999.0,82,-99.99,,,-99.99,,2013-03-27 16:41:00,
2013-03-27 16:52:00,35.0,31.0,30.01,North,-999,-999.0,-999.0,82,-99.99,,,-99.99,,2013-03-27 16:52:00,
2013-03-27 17:00:00,38.0,31.0,29.97,North,-999,-999.0,-999.0,74,-99.99,,,-99.99,,2013-03-27 17:00:00,
2013-03-27 17:44:00,38.0,31.0,29.97,North,-999,-999.0,-999.0,74,-99.99,,,-99.99,,2013-03-27 17:44:00,
2013-03-27 17:51:00,38.0,31.0,29.97,North,-999,-999.0,-999.0,74,-99.99,,,-99.99,,2013-03-27 17:51:00,
2013-03-27 18:00:00,38.0,31.0,29.95,North,-999,-999.0,-999.0,74,-99.99,,,-99.99,,2013-03-27 18:00:00,
2013-03-27 18:42:00,38.0,31.0,29.95,North,-999,-999.0,-999.0,74,-99.99,,,-99.99,,2013-03-27 18:42:00,
2013-03-27 18:51:00,38.0,31.0,29.95,North,-999,-999.0,-999.0,74,-99.99,,,-99.99,,2013-03-27 18:51:00,
2013-03-27 19:00:00,36.0,31.0,29.98,North,-999,-999.0,-999.0,80,-99.99,,,-99.99,,2013-03-27 19:00:00,
2013-03-27 19:41:00,36.0,31.0,29.98,North,-999,-999.0,-999.0,80,-99.99,,,-99.99,,2013-03-27 19:41:00,
2013-03-27 19:51:00,36.0,31.0,29.98,North,-999,-999.0,-999.0,80,-99.99,,,-99.99,,2013-03-27 19:51:00,
2013-03-27 20:00:00,34.0,29.0,30.01,North,-999,-999.0,-999.0,81,-99.99,,,-99.99,,2013-03-27 20:00:00,
2013-03-27 20:41:00,34.0,29.0,30.01,North,-999,-999.0,-999.0,81,-99.99,,,-99.99,,2013-03-27 20:41:00,
2013-03-27 20:51:00,34.0,29.0,30.01,North,-999,-999.0,-999.0,81,-99.99,,,-99.99,,2013-03-27 20:51:00,
2013-03-27 21:00:00,35.0,28.0,30.01,North,-999,-999.0,-999.0,74,-99.99,,,-99.99,,2013-03-27 21:00:00,
2013-03-27 21:42:00,35.0,28.0,30.01,North,-999,-999.0,-999.0,74,-99.99,,,-99.99,,2013-03-27 21:42:00,
2013-03-27 21:52:00,35.0,28.0,30.01,North,-999,-999.0,-999.0,74,-99.99,,,-99.99,,2013-03-27 21:52:00,
2013-03-27 22:00:00,36.0,29.0,30.01,North,-999,-999.0,-999.0,76,-99.99,,,-99.99,,2013-03-27 22:00:00,
2013-03-27 22:42:00,36.0,29.0,30.01,North,-999,-999.0,-999.0,76,-99.99,,,-99.99,,2013-03-27 22:42:00,
2013-03-27 22:52:00,36.0,29.0,30.01,North,-999,-999.0,-999.0,76,-99.99,,,-99.99,,2013-03-27 22:52:00,
2013-03-27 23:00:00,36.0,29.0,30.01,North,-999,-999.0,-999.0,75,-99.99,,,-99.99,,2013-03-27 23:00:00,
2013-03-27 23:42:00,36.0,29.0,30.01,North,-999,-999.0,-999.0,75,-99.99,,,-99.99,,2013-03-27 23:42:00,
2013-03-27 23:51:00,36.0,29.0,30.01,North,-999,-999.0,-999.0,75,-99.99,,,-99.99,,2013-03-27 23:51:00,